Time;durP1;ratioP1;P1;durP2;ratioP2;P2;SDS_P1;SDS_P2;PMS_P1;PMS_P2;Temp;Humidity;BMP_temperature;BMP_pressure;BME280_temperature;BME280_humidity;BME280_pressure;Samples;Min_cycle;Max_cycle;Signal;HPM_P1;HPM_P2
2021/08/25 00:00:46;;;;;;;5.10;3.40;;;;;;;29.28;68.33;100720.97;5031104;28;66894;-38
2021/08/25 00:03:17;;;;;;;5.60;3.55;;;;;;;29.29;69.18;100722.63;5027322;28;70088;-37
2021/08/25 00:05:48;;;;;;;4.95;4.25;;;;;;;29.36;68.62;100726.16;5007953;28;65403;-38
2021/08/25 00:08:20;;;;;;;8.63;5.90;;;;;;;29.36;68.76;100723.44;5030041;28;69573;-38
2021/08/25 00:10:51;;;;;;;10.77;5.60;;;;;;;29.31;69.41;100720.56;5032806;28;66276;-38
2021/08/25 00:13:21;;;;;;;9.93;5.45;;;;;;;29.44;68.88;100735.88;5035217;28;70161;-38
2021/08/25 00:15:52;;;;;;;9.93;5.30;;;;;;;29.44;70.59;100743.16;5017722;28;65675;-38
2021/08/25 00:18:22;;;;;;;9.90;5.60;;;;;;;29.45;70.36;100742.94;5026832;28;69948;-42
2021/08/25 00:20:54;;;;;;;6.50;4.85;;;;;;;29.51;70.51;100757.47;5029965;28;66678;-37
2021/08/25 00:23:24;;;;;;;5.63;4.60;;;;;;;29.54;69.43;100755.16;5035821;28;70082;-37
2021/08/25 00:26:03;;;;;;;6.10;4.13;;;;;;;29.51;70.75;100743.97;5034177;28;65272;-39
2021/08/25 00:28:34;;;;;;;5.18;4.53;;;;;;;29.59;70.59;100754.53;5031533;28;69857;-39
2021/08/25 00:31:05;;;;;;;7.78;5.53;;;;;;;29.56;70.43;100749.53;5033781;28;64764;-38
2021/08/25 00:33:36;;;;;;;6.10;5.50;;;;;;;29.62;71.68;100765.75;5032306;28;69066;-38
2021/08/25 00:36:07;;;;;;;8.15;5.53;;;;;;;29.66;71.85;100770.75;5032728;28;64110;-38
2021/08/25 00:38:37;;;;;;;9.93;6.15;;;;;;;29.67;71.46;100765.13;5034697;28;72466;-38
2021/08/25 00:41:08;;;;;;;8.00;5.75;;;;;;;29.68;71.37;100772.19;5035899;28;66804;-38
2021/08/25 00:43:38;;;;;;;8.52;5.63;;;;;;;29.69;71.05;100776.53;5029763;28;69465;-40
2021/08/25 00:46:11;;;;;;;6.97;5.53;;;;;;;29.72;72.13;100784.22;5012941;28;66384;-39
2021/08/25 00:48:41;;;;;;;;;;;;;;;29.45;74.29;100783.47;5029891;28;69867;-39
2021/08/25 00:51:11;;;;;;;5.90;4.85;;;;;;;29.72;72.48;100788.81;5029132;28;65393;-40
2021/08/25 00:53:45;;;;;;;5.60;4.28;;;;;;;29.80;72.28;100793.97;5027982;28;69676;-38
2021/08/25 00:56:15;;;;;;;4.70;4.30;;;;;;;29.78;73.39;100796.06;5027954;28;65998;-38
2021/08/25 00:58:46;;;;;;;7.35;4.40;;;;;;;29.81;72.18;100795.63;5031921;28;69326;-38
2021/08/25 01:01:53;;;;;;;5.35;3.92;;;;;;;29.77;72.32;100806.03;5030427;28;66081;-38
2021/08/25 01:04:40;;;;;;;6.25;3.75;;;;;;;29.71;72.47;100787.97;5010856;28;70455;-38
2021/08/25 01:07:14;;;;;;;3.95;3.65;;;;;;;29.59;71.55;100759.94;5026456;28;65702;-38
2021/08/25 01:09:45;;;;;;;6.57;3.97;;;;;;;29.87;72.56;100816.41;5012169;28;68882;-38
2021/08/25 01:12:16;;;;;;;4.53;3.50;;;;;;;29.88;71.64;100811.84;5022334;28;65827;-38
2021/08/25 01:14:46;;;;;;;3.45;3.15;;;;;;;29.93;72.26;100822.84;5022492;28;69217;-37
2021/08/25 01:17:26;;;;;;;3.90;3.47;;;;;;;29.88;72.63;100806.41;5025431;28;66332;-38
2021/08/25 01:20:10;;;;;;;4.38;3.83;;;;;;;29.96;73.10;100819.69;5026255;28;70595;-38
2021/08/25 01:22:42;;;;;;;5.03;3.05;;;;;;;29.57;71.69;100745.81;5030556;28;66216;-38
2021/08/25 01:25:13;;;;;;;4.60;2.70;;;;;;;29.96;71.95;100804.28;5025328;28;69927;-39
2021/08/25 01:27:52;;;;;;;3.70;3.28;;;;;;;29.90;72.34;100790.81;5029697;28;66401;-38
2021/08/25 01:30:28;;;;;;;3.67;3.30;;;;;;;30.04;72.41;100805.94;5026830;28;69559;-46
2021/08/25 01:32:59;;;;;;;3.75;3.45;;;;;;;30.09;71.44;100802.56;5026592;28;65275;-38
2021/08/25 01:35:34;;;;;;;4.55;3.90;;;;;;;30.09;72.80;100798.00;5029506;28;70173;-36
2021/08/25 01:38:09;;;;;;;4.75;3.65;;;;;;;30.04;71.93;100795.09;5025482;28;66602;-38
2021/08/25 01:40:39;;;;;;;4.68;3.58;;;;;;;30.06;71.99;100799.25;5014346;28;69947;-37
2021/08/25 01:43:09;;;;;;;11.13;3.45;;;;;;;30.08;72.32;100795.50;5031364;28;65438;-36
2021/08/25 01:45:40;;;;;;;5.10;3.45;;;;;;;30.11;72.15;100786.94;5028902;28;70743;-37
2021/08/25 01:48:10;;;;;;;7.05;3.72;;;;;;;30.12;71.60;100781.31;5026675;28;66120;-37
2021/08/25 01:50:43;;;;;;;5.63;2.78;;;;;;;30.11;71.12;100768.00;5012313;28;69106;-36
2021/08/25 01:53:22;;;;;;;;;;;;;;;29.83;72.00;100783.53;5030494;28;43078;-36
2021/08/25 01:55:52;;;;;;;3.30;2.42;;;;;;;30.11;71.21;100779.66;5030990;28;70548;-37
2021/08/25 01:58:23;;;;;;;2.85;2.50;;;;;;;30.12;71.29;100781.31;5023372;28;65632;-37
2021/08/25 02:00:54;;;;;;;5.97;2.43;;;;;;;30.15;71.50;100786.31;5029745;28;70282;-36
2021/08/25 02:03:25;;;;;;;3.80;2.30;;;;;;;30.15;71.02;100785.47;5030616;28;65138;-36
2021/08/25 02:05:56;;;;;;;3.20;2.65;;;;;;;30.26;70.75;100792.94;5028973;28;70252;-36
2021/08/25 02:08:26;;;;;;;3.33;2.25;;;;;;;30.20;70.85;100781.06;5008933;28;65124;-37
2021/08/25 02:10:57;;;;;;;5.82;2.83;;;;;;;30.26;70.12;100784.81;5029175;28;70436;-37
2021/08/25 02:13:28;;;;;;;2.83;2.20;;;;;;;30.09;70.53;100770.94;5024156;28;66613;-36
2021/08/25 02:15:58;;;;;;;2.88;2.53;;;;;;;30.21;69.84;100796.25;5023152;28;70001;-36
2021/08/25 02:18:28;;;;;;;5.63;1.95;;;;;;;30.22;69.77;100792.50;5023650;28;66550;-38
2021/08/25 02:21:00;;;;;;;8.50;2.00;;;;;;;30.21;69.81;100801.66;5022599;28;70370;-38
2021/08/25 02:23:30;;;;;;;4.22;2.50;;;;;;;30.16;69.98;100798.78;5026724;28;66664;-37
2021/08/25 02:26:00;;;;;;;3.67;3.20;;;;;;;30.19;70.29;100798.31;5026403;28;70560;-38
2021/08/25 02:28:31;;;;;;;9.18;3.33;;;;;;;30.27;70.25;100806.22;5027934;28;66775;-37
2021/08/25 02:31:01;;;;;;;2.65;2.45;;;;;;;30.25;70.37;100788.53;5028216;28;70089;-36
2021/08/25 02:33:32;;;;;;;2.55;2.35;;;;;;;30.31;70.07;100782.25;5042262;28;65464;-37
2021/08/25 02:36:06;;;;;;;4.18;2.47;;;;;;;30.39;69.50;100786.56;5029797;28;70157;-39
2021/08/25 02:38:37;;;;;;;2.63;2.20;;;;;;;30.34;70.05;100772.88;5030130;28;65399;-38
2021/08/25 02:41:09;;;;;;;;;;;;;;;30.17;70.56;100788.78;5031023;28;69214;-38
2021/08/25 02:43:41;;;;;;;6.22;2.67;;;;;;;30.46;70.11;100792.78;5012732;28;66228;-38
2021/08/25 02:46:12;;;;;;;2.30;2.10;;;;;;;30.47;69.87;100794.44;5030469;28;70046;-40
2021/08/25 02:48:43;;;;;;;3.88;2.35;;;;;;;30.61;69.56;100795.97;5025826;28;64923;-37
2021/08/25 02:51:14;;;;;;;3.13;2.10;;;;;;;30.58;69.39;100784.78;5030351;28;70248;-38
2021/08/25 02:53:57;;;;;;;2.20;2.00;;;;;;;30.64;69.78;100783.88;5026846;28;65134;-37
2021/08/25 02:56:28;;;;;;;2.25;1.88;;;;;;;30.68;69.56;100785.94;5028614;28;67846;-36
2021/08/25 02:58:59;;;;;;;4.78;2.00;;;;;;;30.71;69.27;100785.50;5030468;28;66234;-37
2021/08/25 03:01:29;;;;;;;4.28;2.20;;;;;;;30.75;68.51;100785.03;5028706;28;69831;-37
2021/08/25 03:04:00;;;;;;;2.13;1.90;;;;;;;30.71;69.17;100777.38;5027916;28;66206;-38
2021/08/25 03:06:30;;;;;;;4.05;2.50;;;;;;;30.78;69.07;100774.59;5030652;28;70156;-38
2021/08/25 03:09:01;;;;;;;3.80;2.08;;;;;;;30.76;69.50;100771.28;5030008;28;65996;-37
2021/08/25 03:11:35;;;;;;;4.03;2.20;;;;;;;30.83;69.07;100779.38;5031607;28;70027;-36
2021/08/25 03:14:05;;;;;;;5.53;2.10;;;;;;;30.82;69.17;100781.28;5015806;28;65314;-36
2021/08/25 03:16:36;;;;;;;6.97;2.28;;;;;;;30.77;68.81;100766.72;5030537;28;70461;-37
2021/08/25 03:19:06;;;;;;;1.95;1.73;;;;;;;30.81;68.94;100784.19;5032082;28;65435;-36
2021/08/25 03:21:41;;;;;;;2.65;2.08;;;;;;;30.85;68.75;100786.22;5033827;28;69653;-37
2021/08/25 03:24:12;;;;;;;2.28;2.00;;;;;;;30.86;68.23;100792.47;5016810;28;66253;-38
2021/08/25 03:26:42;;;;;;;4.28;2.33;;;;;;;30.92;68.06;100783.44;5025656;28;70136;-38
2021/08/25 03:29:13;;;;;;;3.50;1.45;;;;;;;30.93;68.21;100782.41;5032477;28;65364;-38
2021/08/25 03:31:43;;;;;;;1.90;1.70;;;;;;;30.87;67.90;100776.03;5039226;28;70420;-37
2021/08/25 03:34:14;;;;;;;3.45;1.90;;;;;;;30.95;67.75;100791.13;5034478;28;66405;-36
2021/08/25 03:36:44;;;;;;;2.38;2.10;;;;;;;30.99;67.84;100786.94;5029922;28;70035;-39
2021/08/25 03:39:15;;;;;;;4.68;1.50;;;;;;;30.97;67.58;100778.19;5032814;28;66195;-38
2021/08/25 03:41:45;;;;;;;2.78;1.73;;;;;;;30.96;66.86;100776.56;5032552;28;70258;-38
2021/08/25 03:44:15;;;;;;;2.60;1.38;;;;;;;30.97;66.79;100778.19;5037145;28;66002;-36
2021/08/25 03:46:46;;;;;;;2.78;1.50;;;;;;;30.96;67.11;100775.72;5031782;28;69046;-37
2021/08/25 03:49:17;;;;;;;2.67;1.38;;;;;;;30.96;66.72;100770.31;5021315;28;66283;-38
2021/08/25 03:51:48;;;;;;;2.00;1.50;;;;;;;31.04;67.12;100757.31;5028010;28;70052;-37
2021/08/25 03:54:18;;;;;;;2.08;1.23;;;;;;;31.12;67.19;100757.00;5031051;28;65655;-36
2021/08/25 03:56:48;;;;;;;1.83;1.30;;;;;;;31.09;67.90;100752.03;5032489;28;70798;-37
2021/08/25 03:59:19;;;;;;;1.70;1.25;;;;;;;31.20;66.86;100760.47;5013804;28;66126;-37
2021/08/25 04:01:50;;;;;;;1.52;1.30;;;;;;;31.19;67.09;100759.63;5028631;28;70881;-38
2021/08/25 04:04:21;;;;;;;1.60;1.25;;;;;;;31.13;67.73;100755.13;5029491;28;65788;-39
2021/08/25 04:06:51;;;;;;;1.83;1.10;;;;;;;31.09;67.12;100741.22;5027880;28;70112;-38
2021/08/25 04:09:21;;;;;;;1.23;1.00;;;;;;;31.13;66.41;100745.09;5031139;28;66325;-37
2021/08/25 04:11:52;;;;;;;2.45;1.10;;;;;;;31.12;66.72;100743.47;5030740;28;70226;-39
2021/08/25 04:14:22;;;;;;;1.67;0.95;;;;;;;31.21;65.98;100735.03;5035521;28;66636;-36
2021/08/25 04:16:53;;;;;;;1.20;1.10;;;;;;;31.23;66.34;100724.78;5032470;28;68969;-38
2021/08/25 04:19:23;;;;;;;5.78;1.20;;;;;;;31.25;66.32;100720.78;5033246;28;66319;-37
2021/08/25 04:21:53;;;;;;;2.33;1.65;;;;;;;31.24;66.77;100718.31;5031019;28;69926;-37
2021/08/25 04:24:24;;;;;;;7.43;1.30;;;;;;;31.17;65.86;100711.09;5032421;28;65039;-37
2021/08/25 04:26:54;;;;;;;1.85;1.30;;;;;;;31.10;64.77;100702.22;5032370;28;69972;-39
2021/08/25 04:29:25;;;;;;;1.58;1.30;;;;;;;31.23;63.93;100711.22;5014928;28;65453;-39
2021/08/25 04:31:55;;;;;;;1.27;1.00;;;;;;;31.16;64.06;100690.47;5011485;28;70065;-38
2021/08/25 04:34:25;;;;;;;5.93;1.30;;;;;;;31.19;64.75;100693.78;5033082;28;65601;-36
2021/08/25 04:36:56;;;;;;;1.73;1.42;;;;;;;31.15;65.09;100688.81;5035439;28;69944;-41
2021/08/25 04:39:26;;;;;;;3.35;1.48;;;;;;;31.14;64.60;100670.06;5027018;28;65467;-40
2021/08/25 04:41:57;;;;;;;1.65;1.52;;;;;;;31.24;64.49;100669.53;5030157;28;67750;-38
2021/08/25 04:44:28;;;;;;;2.05;1.40;;;;;;;31.26;64.47;100659.28;5030202;28;66593;-37
2021/08/25 04:46:59;;;;;;;4.18;1.60;;;;;;;31.27;65.03;100659.06;5033985;28;69185;-37
2021/08/25 04:49:29;;;;;;;2.97;1.80;;;;;;;31.31;65.33;100656.72;5032466;28;65560;-37
2021/08/25 04:52:00;;;;;;;1.98;1.50;;;;;;;31.29;65.20;100646.13;5014168;28;70435;-38
2021/08/25 04:54:30;;;;;;;5.38;1.40;;;;;;;31.28;65.56;100635.50;5030352;28;66946;-38
2021/08/25 04:57:00;;;;;;;2.38;1.33;;;;;;;31.33;65.41;100631.03;5032692;28;69243;-37
2021/08/25 04:59:31;;;;;;;3.10;1.35;;;;;;;31.34;65.33;100627.28;5034847;28;65069;-37
2021/08/25 05:02:04;;;;;;;2.38;1.40;;;;;;;31.34;65.69;100618.31;5031126;28;70016;-38
2021/08/25 05:04:34;;;;;;;3.67;1.48;;;;;;;31.37;66.13;100607.91;5032278;28;65286;-37
2021/08/25 05:07:05;;;;;;;2.05;1.35;;;;;;;31.31;66.23;100594.38;5024675;28;70006;-38
2021/08/25 05:09:35;;;;;;;1.17;1.08;;;;;;;31.38;66.51;100592.44;5014663;28;65575;-38
2021/08/25 05:12:06;;;;;;;1.75;1.27;;;;;;;31.39;65.79;100585.97;5030713;28;69454;-38
2021/08/25 05:14:36;;;;;;;1.52;1.23;;;;;;;31.42;65.22;100590.91;5029486;28;66347;-37
2021/08/25 05:17:07;;;;;;;1.25;1.13;;;;;;;31.38;65.29;100573.47;5008779;28;71022;-37
2021/08/25 05:19:38;;;;;;;3.63;1.10;;;;;;;31.43;66.16;100576.31;5029104;28;65327;-38
2021/08/25 05:22:09;;;;;;;2.03;0.80;;;;;;;31.44;65.68;100564.41;5024614;28;70103;-38
2021/08/25 05:24:40;;;;;;;3.88;1.25;;;;;;;31.50;65.32;100558.06;5027814;28;65375;-37
2021/08/25 05:27:10;;;;;;;3.03;0.93;;;;;;;31.39;64.23;100551.53;5028021;28;70753;-36
2021/08/25 05:29:41;;;;;;;3.15;0.70;;;;;;;31.29;63.33;100545.84;5029942;28;66262;-37
2021/08/25 05:32:11;;;;;;;5.30;1.35;;;;;;;31.23;62.84;100548.63;4996465;28;68981;-37
2021/08/25 05:34:41;;;;;;;6.47;1.00;;;;;;;31.03;61.76;100549.75;5030782;28;66574;-37
2021/08/25 05:37:12;;;;;;;5.32;1.08;;;;;;;30.98;61.20;100548.78;5031138;28;69974;-37
2021/08/25 05:39:42;;;;;;;1.70;0.88;;;;;;;30.74;59.90;100518.88;5030367;28;68090;-37
2021/08/25 05:42:12;;;;;;;1.55;0.82;;;;;;;30.83;58.86;100549.19;5031167;28;69826;-37
2021/08/25 05:44:42;;;;;;;2.20;1.08;;;;;;;30.70;58.80;100542.88;5029022;28;66417;-37
2021/08/25 05:47:12;;;;;;;3.25;1.25;;;;;;;30.68;57.84;100558.50;5029063;28;69392;-37
2021/08/25 05:49:43;;;;;;;2.83;1.13;;;;;;;30.61;57.44;100546.91;5030688;28;65582;-37
2021/08/25 05:52:14;;;;;;;2.83;1.20;;;;;;;30.56;57.60;100543.25;5030806;28;70254;-36
2021/08/25 05:54:44;;;;;;;1.48;1.00;;;;;;;30.56;56.66;100551.34;5025078;28;66825;-37
2021/08/25 05:57:14;;;;;;;1.73;0.82;;;;;;;30.53;55.90;100541.81;5026530;28;69410;-37
2021/08/25 05:59:44;;;;;;;2.72;1.33;;;;;;;30.54;55.38;100535.34;5028726;28;66152;-37
2021/08/25 06:02:15;;;;;;;2.53;1.77;;;;;;;30.48;54.71;100536.28;5028852;28;69851;-37
2021/08/25 06:04:45;;;;;;;1.60;1.38;;;;;;;30.50;54.23;100534.16;5031461;28;65972;-36
2021/08/25 06:07:16;;;;;;;1.83;1.42;;;;;;;30.48;53.49;100536.28;5024884;28;69387;-37
2021/08/25 06:09:46;;;;;;;1.67;1.58;;;;;;;30.47;53.13;100540.00;5031060;28;65765;-39
2021/08/25 06:12:16;;;;;;;3.38;1.10;;;;;;;30.44;52.97;100519.63;5034059;28;70496;-37
2021/08/25 06:14:47;;;;;;;3.03;1.00;;;;;;;30.43;52.19;100514.47;5034587;28;66144;-37
2021/08/25 06:17:17;;;;;;;1.60;1.20;;;;;;;30.40;51.52;100513.03;5031487;28;70424;-37
2021/08/25 06:19:48;;;;;;;2.78;1.27;;;;;;;30.40;51.65;100512.22;5033826;28;65693;-40
2021/08/25 06:22:19;;;;;;;1.60;1.38;;;;;;;30.42;51.30;100520.91;5022807;28;69876;-38
2021/08/25 06:24:49;;;;;;;1.30;1.15;;;;;;;30.39;50.84;100513.25;5037947;28;65577;-37
2021/08/25 06:27:20;;;;;;;4.85;1.05;;;;;;;30.37;50.30;100510.78;5033195;28;69999;-38
2021/08/25 06:29:50;;;;;;;2.08;1.52;;;;;;;30.35;50.69;100503.94;5021071;28;65860;-39
2021/08/25 06:32:21;;;;;;;1.80;1.65;;;;;;;30.37;50.19;100513.50;5034297;28;69727;-37
2021/08/25 06:34:51;;;;;;;1.45;1.35;;;;;;;30.37;50.22;100513.50;5032259;28;66127;-37
2021/08/25 06:37:21;;;;;;;1.80;1.70;;;;;;;30.38;50.04;100514.31;5032114;28;69705;-37
2021/08/25 06:39:52;;;;;;;4.30;1.55;;;;;;;30.35;50.10;100504.75;5031164;28;65226;-37
2021/08/25 06:42:22;;;;;;;2.22;2.00;;;;;;;30.32;49.46;100486.28;5031944;28;70154;-38
2021/08/25 06:44:53;;;;;;;1.90;1.75;;;;;;;30.31;49.18;100481.06;5036808;28;66405;-38
2021/08/25 06:47:23;;;;;;;1.67;1.58;;;;;;;30.32;49.41;100485.44;5030156;28;69354;-37
2021/08/25 06:49:54;;;;;;;1.92;1.73;;;;;;;30.31;49.23;100483.78;5034278;28;65925;-37
2021/08/25 06:52:24;;;;;;;2.03;1.48;;;;;;;30.31;49.06;100486.47;5034670;28;70265;-37
2021/08/25 06:54:54;;;;;;;1.90;1.70;;;;;;;30.31;49.07;100476.47;5036325;28;66461;-37
2021/08/25 06:57:25;;;;;;;1.67;1.52;;;;;;;30.27;49.19;100459.06;5032850;28;70091;-37
2021/08/25 06:59:55;;;;;;;2.28;1.75;;;;;;;30.33;49.13;100457.31;5026385;28;66478;-38
2021/08/25 07:02:25;;;;;;;9.50;2.13;;;;;;;30.33;49.30;100462.75;5031703;28;70780;-36
2021/08/25 07:04:56;;;;;;;1.70;1.60;;;;;;;30.31;49.13;100454.84;5035342;28;66394;-37
2021/08/25 07:07:26;;;;;;;2.03;1.92;;;;;;;30.32;48.62;100451.09;5029321;28;70191;-37
2021/08/25 07:09:57;;;;;;;2.03;1.92;;;;;;;30.33;48.83;100452.75;5034816;28;66052;-38
2021/08/25 07:12:27;;;;;;;2.45;2.25;;;;;;;30.35;48.72;100456.06;5029696;28;69259;-38
2021/08/25 07:14:57;;;;;;;5.25;2.72;;;;;;;30.37;48.23;100469.34;5037336;28;66059;-36
2021/08/25 07:17:28;;;;;;;3.13;2.92;;;;;;;30.39;48.63;100453.72;5029772;28;69527;-36
2021/08/25 07:19:58;;;;;;;3.45;3.13;;;;;;;30.41;48.79;100459.72;5036025;28;65217;-36
2021/08/25 07:22:31;;;;;;;2.80;2.60;;;;;;;30.40;48.34;100449.97;5032672;28;70193;-36
2021/08/25 07:25:02;;;;;;;2.95;2.70;;;;;;;30.42;47.82;100434.31;5035397;28;66895;-36
2021/08/25 07:27:33;;;;;;;2.97;2.78;;;;;;;30.45;48.13;100428.44;5035097;28;70032;-36
2021/08/25 07:30:04;;;;;;;3.60;3.10;;;;;;;30.43;48.05;100431.38;5035875;28;65846;-36
2021/08/25 07:32:35;;;;;;;3.25;3.05;;;;;;;30.46;48.12;100424.69;5035434;28;69973;-37
2021/08/25 07:35:11;;;;;;;3.03;2.83;;;;;;;30.45;47.79;100428.44;5038222;28;65834;-37
2021/08/25 07:37:41;;;;;;;2.60;2.45;;;;;;;30.46;47.70;100419.28;5034075;28;70349;-37
2021/08/25 07:40:12;;;;;;;3.05;2.75;;;;;;;30.46;48.19;100422.00;5034763;28;66505;-37
2021/08/25 07:42:44;;;;;;;3.53;2.72;;;;;;;30.45;47.97;100428.44;5037054;28;69403;-37
2021/08/25 07:45:15;;;;;;;2.42;2.22;;;;;;;30.46;47.52;100430.94;5035316;28;65836;-38
2021/08/25 07:47:46;;;;;;;5.60;2.60;;;;;;;30.47;48.39;100415.50;5030374;28;69297;-37
2021/08/25 07:50:17;;;;;;;;;;;;;;;30.36;49.95;100419.81;5030193;28;66531;-37
2021/08/25 07:52:47;;;;;;;3.20;3.00;;;;;;;30.65;50.92;100422.78;5028281;28;69233;-38
2021/08/25 07:55:18;;;;;;;3.00;2.80;;;;;;;30.73;51.42;100417.03;5030830;28;66234;-40
2021/08/25 07:57:48;;;;;;;2.88;2.67;;;;;;;30.84;51.67;100404.59;5030460;28;69603;-37
2021/08/25 08:00:19;;;;;;;5.07;2.63;;;;;;;30.92;52.74;100401.56;5031432;28;66335;-37
2021/08/25 08:02:49;;;;;;;2.67;2.47;;;;;;;31.01;53.06;100415.59;5030171;28;70193;-37
2021/08/25 08:05:20;;;;;;;3.30;3.10;;;;;;;31.08;55.81;100408.19;5030555;28;65093;-37
2021/08/25 08:07:51;;;;;;;4.97;3.10;;;;;;;31.20;57.15;100425.28;5027887;28;69974;-37
2021/08/25 08:10:21;;;;;;;3.03;2.83;;;;;;;31.30;57.66;100422.84;5032756;28;65122;-37
2021/08/25 08:12:54;;;;;;;3.00;2.80;;;;;;;31.38;59.03;100419.81;5031033;28;70108;-37
2021/08/25 08:15:29;;;;;;;3.38;3.17;;;;;;;31.37;58.67;100403.78;5033283;28;66352;-37
2021/08/25 08:18:09;;;;;;;3.58;3.38;;;;;;;31.54;57.68;100421.00;5033256;28;70226;-37
2021/08/25 08:20:39;;;;;;;3.30;3.10;;;;;;;31.60;58.34;100433.59;5029369;28;66075;-36
2021/08/25 08:23:10;;;;;;;4.47;4.18;;;;;;;31.67;58.84;100443.50;5027954;28;70234;-37
2021/08/25 08:25:40;;;;;;;3.72;3.42;;;;;;;31.70;58.65;100437.59;5031190;28;66561;-37
2021/08/25 08:28:10;;;;;;;5.30;5.00;;;;;;;31.78;58.07;100442.66;5031257;28;69906;-38
2021/08/25 08:30:41;;;;;;;4.97;4.47;;;;;;;31.77;59.16;100431.00;5028469;28;66028;-39
2021/08/25 08:33:11;;;;;;;10.90;5.05;;;;;;;31.88;58.42;100448.34;5027271;28;70149;-37
2021/08/25 08:35:41;;;;;;;6.40;5.32;;;;;;;31.91;58.76;100453.31;5029260;28;66548;-38
2021/08/25 08:38:12;;;;;;;5.35;4.95;;;;;;;31.93;58.95;100445.78;5030878;28;70017;-39
2021/08/25 08:40:42;;;;;;;4.50;4.20;;;;;;;31.93;59.48;100450.34;5031241;28;66510;-38
2021/08/25 08:43:12;;;;;;;5.85;4.13;;;;;;;31.91;60.28;100437.03;5029840;28;70389;-38
2021/08/25 08:45:44;;;;;;;4.70;4.30;;;;;;;31.76;58.94;100412.25;5033038;28;66482;-39
2021/08/25 08:48:22;;;;;;;4.35;4.05;;;;;;;31.87;59.68;100441.25;5027015;28;70975;-39
2021/08/25 08:50:53;;;;;;;8.20;4.25;;;;;;;31.93;61.10;100456.63;5031351;28;67452;-39
2021/08/25 08:53:24;;;;;;;4.43;3.67;;;;;;;31.94;59.65;100452.84;5027242;28;70020;-40
2021/08/25 08:55:55;;;;;;;9.48;4.20;;;;;;;31.90;60.57;100451.63;5030974;28;66268;-38
2021/08/25 08:58:25;;;;;;;3.83;3.20;;;;;;;31.92;59.82;100457.66;5031769;28;69660;-37
2021/08/25 09:00:56;;;;;;;5.90;3.28;;;;;;;31.92;60.22;100459.56;5031530;28;66075;-37
2021/08/25 09:03:27;;;;;;;3.47;3.17;;;;;;;31.84;59.16;100455.28;5030238;28;69436;-38
2021/08/25 09:06:00;;;;;;;3.60;3.30;;;;;;;31.86;58.55;100461.31;5027095;28;66453;-37
2021/08/25 09:08:35;;;;;;;3.05;2.85;;;;;;;31.85;59.82;100459.66;5025743;28;70238;-38
2021/08/25 09:11:16;;;;;;;5.97;2.92;;;;;;;31.82;61.78;100454.72;5031554;28;65706;-38
2021/08/25 09:13:51;;;;;;;3.13;2.92;;;;;;;31.54;60.22;100403.91;5025519;28;70558;-37
2021/08/25 09:16:30;;;;;;;3.60;3.30;;;;;;;31.54;59.98;100404.75;5028526;28;65627;-38
2021/08/25 09:19:13;;;;;;;9.50;2.80;;;;;;;31.83;58.55;100449.03;5025738;28;70006;-39
2021/08/25 09:21:52;;;;;;;3.92;3.00;;;;;;;31.72;57.38;100439.03;5026959;28;66056;-39
2021/08/25 09:24:37;;;;;;;2.60;2.40;;;;;;;31.78;57.78;100454.34;5026030;28;70228;-38
2021/08/25 09:27:13;;;;;;;2.50;2.30;;;;;;;31.77;58.26;100462.72;5026955;28;65742;-38
2021/08/25 09:29:54;;;;;;;3.88;2.45;;;;;;;31.61;58.58;100432.53;5025177;28;70567;-37
2021/08/25 09:32:27;;;;;;;3.55;3.35;;;;;;;31.87;57.78;100479.22;5024458;28;66543;-38
2021/08/25 09:35:03;;;;;;;4.40;4.07;;;;;;;31.87;57.21;100484.63;5013653;28;69545;-40
2021/08/25 09:37:34;;;;;;;4.22;3.40;;;;;;;31.83;58.86;100489.72;5027155;28;66759;-38
2021/08/25 09:40:14;;;;;;;4.60;4.20;;;;;;;31.78;57.55;100480.63;5027133;28;71665;-38
2021/08/25 09:42:48;;;;;;;4.35;3.95;;;;;;;31.78;58.17;100480.63;5027865;28;66597;-37
2021/08/25 09:45:19;;;;;;;4.28;3.88;;;;;;;31.80;57.94;100494.81;5029716;28;70369;-37
2021/08/25 09:47:52;;;;;;;8.82;4.38;;;;;;;31.78;57.30;100491.50;5032158;28;66541;-37
2021/08/25 09:50:24;;;;;;;5.30;4.80;;;;;;;31.81;57.40;100507.28;5033068;28;69696;-37
2021/08/25 09:52:56;;;;;;;5.30;4.80;;;;;;;31.80;58.17;100501.03;5033105;28;66060;-36
2021/08/25 09:55:34;;;;;;;6.30;5.78;;;;;;;31.56;57.30;100473.09;5012002;28;70233;-38
2021/08/25 09:58:14;;;;;;;4.70;4.30;;;;;;;31.54;57.83;100491.50;5025366;28;66223;-37
2021/08/25 10:00:44;;;;;;;4.13;3.80;;;;;;;31.79;57.80;100531.13;5029201;28;70232;-37
2021/08/25 10:03:15;;;;;;;3.42;3.13;;;;;;;31.77;58.02;100527.81;5027530;28;66001;-38
2021/08/25 10:05:46;;;;;;;4.33;3.73;;;;;;;31.80;58.11;100533.59;5029847;28;69440;-38
2021/08/25 10:08:17;;;;;;;4.95;3.20;;;;;;;31.86;58.48;100537.25;5024401;28;66190;-39
2021/08/25 10:10:48;;;;;;;4.00;3.70;;;;;;;31.87;58.90;100544.31;5006394;28;69508;-37
2021/08/25 10:13:18;;;;;;;3.90;3.60;;;;;;;31.87;59.96;100538.06;5028130;28;66178;-38
2021/08/25 10:15:49;;;;;;;3.45;3.22;;;;;;;31.93;59.77;100558.84;5026096;28;70002;-38
2021/08/25 10:18:25;;;;;;;3.60;3.40;;;;;;;31.95;59.66;100567.59;5027675;28;66289;-38
2021/08/25 10:21:00;;;;;;;4.88;4.15;;;;;;;31.96;60.31;100563.84;5028444;28;69521;-36
2021/08/25 10:23:59;;;;;;;9.48;4.38;;;;;;;31.88;59.85;100570.41;5025472;28;66451;-36
2021/08/25 10:27:06;;;;;;;3.83;3.53;;;;;;;31.86;58.87;100580.66;5025091;28;69908;-38
2021/08/25 10:30:17;;;;;;;4.88;4.47;;;;;;;31.86;58.96;100583.34;5013457;28;65247;-38
2021/08/25 10:32:53;;;;;;;7.22;5.00;;;;;;;31.93;62.84;100583.25;5032000;28;69575;-38
2021/08/25 10:35:27;;;;;;;10.68;5.43;;;;;;;31.68;59.89;100551.75;5024750;28;66071;-37
2021/08/25 10:38:20;;;;;;;13.77;6.07;;;;;;;31.89;59.21;100601.88;5031492;28;70062;-39
2021/08/25 10:41:00;;;;;;;7.53;5.47;;;;;;;31.98;59.54;100602.38;5020796;28;65551;-40
2021/08/25 10:43:44;;;;;;;5.78;5.38;;;;;;;31.94;59.30;100609.34;5023297;28;69836;-40
2021/08/25 10:46:17;;;;;;;11.73;6.20;;;;;;;32.00;59.14;100609.22;5024625;28;66208;-39
2021/08/25 10:48:57;;;;;;;5.40;4.90;;;;;;;31.64;59.11;100555.16;5012032;28;70132;-39
2021/08/25 10:51:38;;;;;;;10.13;5.28;;;;;;;31.98;60.05;100621.38;5027956;28;64793;-39
2021/08/25 10:54:11;;;;;;;6.40;5.90;;;;;;;31.94;60.43;100620.19;5028858;28;70241;-38
2021/08/25 10:56:44;;;;;;;7.18;6.53;;;;;;;31.97;59.70;100625.16;5031315;28;66427;-40
2021/08/25 10:59:20;;;;;;;6.95;5.03;;;;;;;31.96;60.52;100620.81;5016832;28;70198;-39
2021/08/25 11:01:58;;;;;;;5.80;5.30;;;;;;;31.92;60.32;100622.31;5028683;28;65889;-38
2021/08/25 11:04:30;;;;;;;10.55;5.25;;;;;;;31.96;59.81;100640.63;5029383;28;70066;-40
2021/08/25 11:07:06;;;;;;;6.05;5.55;;;;;;;31.97;60.15;100647.69;5031892;28;64759;-38
2021/08/25 11:09:47;;;;;;;6.68;5.63;;;;;;;31.92;60.91;100650.25;5033726;28;70046;-38
2021/08/25 11:12:19;;;;;;;10.77;6.22;;;;;;;31.98;60.64;100660.19;5035964;28;65509;-37
2021/08/25 11:14:56;;;;;;;11.93;6.30;;;;;;;31.89;61.37;100650.69;5033864;28;69386;-39
2021/08/25 11:17:31;;;;;;;7.90;7.15;;;;;;;31.97;61.39;100658.53;5030723;28;65588;-38
2021/08/25 11:20:07;;;;;;;8.82;7.05;;;;;;;31.96;60.77;100656.06;5028821;28;69404;-38
2021/08/25 11:22:55;;;;;;;8.20;7.43;;;;;;;31.66;59.83;100666.91;5031127;28;64919;-38
2021/08/25 11:25:25;;;;;;;8.88;8.10;;;;;;;31.50;59.52;100661.06;5031366;28;70440;-40
2021/08/25 11:27:56;;;;;;;7.53;7.00;;;;;;;31.28;58.37;100660.72;5032467;28;64879;-38
2021/08/25 11:30:29;;;;;;;7.15;6.45;;;;;;;31.15;57.83;100674.44;5035612;28;70288;-38
2021/08/25 11:33:11;;;;;;;13.18;7.90;;;;;;;30.96;57.49;100673.63;5032104;28;66223;-39
2021/08/25 11:35:45;;;;;;;8.85;8.05;;;;;;;30.82;57.37;100672.13;5031632;28;70354;-38
2021/08/25 11:38:18;;;;;;;11.55;7.32;;;;;;;30.46;57.03;100631.22;5031736;28;65258;-39
2021/08/25 11:40:49;;;;;;;7.68;7.00;;;;;;;30.68;56.06;100683.06;5033012;28;70270;-38
2021/08/25 11:43:22;;;;;;;8.73;8.00;;;;;;;30.54;56.00;100669.88;5031694;28;65691;-39
2021/08/25 11:45:55;;;;;;;8.73;7.82;;;;;;;30.55;54.88;100691.28;5031522;28;69919;-38
2021/08/25 11:48:30;;;;;;;7.40;6.80;;;;;;;30.43;54.85;100695.78;5031287;28;65554;-38
2021/08/25 11:51:01;;;;;;;12.48;6.60;;;;;;;30.37;53.80;100694.81;5014321;28;69918;-39